Terminal Aerodrome Forecast
Issued by NWS Portland, OR

Home | Current Version | Previous Version | Text Only | Print | Product List | Glossary On
Versions: 1 2 3 4 5 6 7 8 9 10 11 12 13 14 15 16 17 18 19 20 21 22 23 24 25 26 27 28 29 30 31 32 33 34 35 36
792
FTUS46 KPQR 210736 AAA
TAFEUG
TAF AMD
KEUG 210736Z 2108/2206 18006KT 6SM -RASN SCT015 OVC025
     FM211000 36003KT 5SM BR BKN008 OVC015
     FM211400 36004KT P6SM OVC019
     FM212100 32005KT P6SM SCT025 OVC060
     FM220500 17005KT 1SM -SHSN OVC015=

USA.gov is the U.S. government's official web portal to all federal, state and local government web resources and services.